This is the latest recevied weather packets stored in our database for station/object KA1JKB. If no packets are shown the sender has not sent any weather packets the latest 10 day(s).
| Time | Temp. | Humidity | Pressure | Rain* | Wind** | Luminosity | Snow |
|---|---|---|---|---|---|---|---|
| 1777586875 | 11.67° C | 49% | 1011.6 hPa | 0 mm | - | 166 W/m² | - |
| 1777586571 | 12.22° C | 49% | 1011.3 hPa | 0 mm | - | 173 W/m² | - |
| 1777586267 | 11.67° C | 50% | 1011.3 hPa | 0 mm | - | 391 W/m² | - |
| 1777585964 | 11.67° C | 49% | 1011.3 hPa | 0 mm | - | 425 W/m² | - |
| 1777585660 | 12.22° C | 49% | 1011.4 hPa | 0 mm | - | 491 W/m² | - |
| 1777585355 | 11.67° C | 49% | 1011.5 hPa | 0 mm | - | 534 W/m² | - |
| 1777585050 | 11.11° C | 49% | 1011.4 hPa | 0 mm | - | 527 W/m² | - |
| 1777584746 | 12.22° C | 49% | 1011.5 hPa | 0 mm | - | 119 W/m² | - |
| 1777584445 | 11.11° C | 49% | 1011.3 hPa | 0 mm | - | 515 W/m² | - |
| 1777584141 | 12.22° C | 47% | 1011.2 hPa | 0 mm | - | 118 W/m² | - |
| 1777583840 | 12.78° C | 46% | 1011.2 hPa | 0 mm | - | 511 W/m² | - |
| 1777583536 | 12.22° C | 48% | 1011.5 hPa | 0 mm | - | 544 W/m² | - |
| 1777583235 | 12.78° C | 46% | 1011.3 hPa | 0 mm | - | 441 W/m² | - |
| 1777582929 | 13.33° C | 46% | 1011.3 hPa | 0 mm | - | 601 W/m² | - |
| 1777582628 | 13.33° C | 50% | 1011.4 hPa | 0 mm | - | 619 W/m² | - |
| 1777582323 | 12.22° C | 56% | 1011.6 hPa | 0 mm | - | 681 W/m² | - |
| 1777582021 | 11.11° C | 52% | 1011.6 hPa | 0 mm | - | 375 W/m² | - |
| 1777581716 | 10.56° C | 55% | 1011.4 hPa | 0 mm | - | 196 W/m² | - |
| 1777581415 | 10.56° C | 53% | 1011.3 hPa | 0 mm | - | 230 W/m² | - |
| 1777581115 | 11.11° C | 57% | 1011.7 hPa | 0 mm | - | 195 W/m² | - |
| 1777580809 | 11.11° C | 56% | 1011.6 hPa | 0 mm | - | 202 W/m² | - |
| 1777580506 | 10.56° C | 56% | 1011.5 hPa | 0 mm | - | 235 W/m² | - |
| 1777580201 | 10.56° C | 54% | 1011.5 hPa | 0 mm | - | 182 W/m² | - |
| 1777579898 | 11.11° C | 57% | 1011.6 hPa | 0 mm | - | 187 W/m² | - |
| 1777579592 | 11.11° C | 56% | 1011.4 hPa | 0 mm | - | 179 W/m² | - |
* Rain latest hour (hover to see other rain measurements)
** Current wind speed in m/s (hover to see current wind gust speed)